sensor_id;sensor_type;location;lat;lon;timestamp;pressure;altitude;pressure_sealevel;temperature;humidity
65329;BME280;51941;52.210;5.158;2022-12-07T00:01:18;101802.81;;;3.85;89.54
65329;BME280;51941;52.210;5.158;2022-12-07T00:03:46;101802.81;;;3.77;89.37
65329;BME280;51941;52.210;5.158;2022-12-07T00:06:14;101808.38;;;3.74;89.30
65329;BME280;51941;52.210;5.158;2022-12-07T00:08:42;101799.50;;;3.67;89.39
65329;BME280;51941;52.210;5.158;2022-12-07T00:11:11;101802.47;;;3.64;89.35
65329;BME280;51941;52.210;5.158;2022-12-07T00:13:39;101800.47;;;3.58;89.41
65329;BME280;51941;52.210;5.158;2022-12-07T00:16:08;101805.41;;;3.61;89.47
65329;BME280;51941;52.210;5.158;2022-12-07T00:18:37;101776.75;;;3.43;89.52
65329;BME280;51941;52.210;5.158;2022-12-07T00:21:06;101798.69;;;3.66;89.55
65329;BME280;51941;52.210;5.158;2022-12-07T00:23:33;101794.78;;;3.70;89.63
65329;BME280;51941;52.210;5.158;2022-12-07T00:26:04;101789.38;;;3.72;89.49
65329;BME280;51941;52.210;5.158;2022-12-07T00:28:31;101784.63;;;3.67;89.38
65329;BME280;51941;52.210;5.158;2022-12-07T00:31:03;101771.03;;;3.56;89.27
65329;BME280;51941;52.210;5.158;2022-12-07T00:33:30;101781.69;;;3.54;89.39
65329;BME280;51941;52.210;5.158;2022-12-07T00:35:59;101771.50;;;3.43;89.44
65329;BME280;51941;52.210;5.158;2022-12-07T00:38:27;101714.16;;;2.99;89.12
65329;BME280;51941;52.210;5.158;2022-12-07T00:40:56;101737.56;;;3.09;89.12
65329;BME280;51941;52.210;5.158;2022-12-07T00:43:23;101775.22;;;3.24;89.17
65329;BME280;51941;52.210;5.158;2022-12-07T00:45:50;101769.81;;;3.18;89.03
65329;BME280;51941;52.210;5.158;2022-12-07T00:48:17;101762.59;;;3.11;89.18
65329;BME280;51941;52.210;5.158;2022-12-07T00:50:43;101767.47;;;3.06;89.20
65329;BME280;51941;52.210;5.158;2022-12-07T00:53:11;101766.31;;;3.01;89.15
65329;BME280;51941;52.210;5.158;2022-12-07T00:55:38;101768.59;;;2.96;89.15
65329;BME280;51941;52.210;5.158;2022-12-07T00:58:05;101770.84;;;2.91;89.32
65329;BME280;51941;52.210;5.158;2022-12-07T01:00:32;101767.72;;;2.87;89.34
65329;BME280;51941;52.210;5.158;2022-12-07T01:03:00;101769.72;;;2.85;89.43
65329;BME280;51941;52.210;5.158;2022-12-07T01:05:26;101768.38;;;2.81;89.51
65329;BME280;51941;52.210;5.158;2022-12-07T01:07:53;101768.03;;;2.76;89.45
65329;BME280;51941;52.210;5.158;2022-12-07T01:10:21;101756.56;;;2.69;89.29
65329;BME280;51941;52.210;5.158;2022-12-07T01:12:48;101763.41;;;2.70;89.30
65329;BME280;51941;52.210;5.158;2022-12-07T01:15:15;101765.53;;;2.66;89.29
65329;BME280;51941;52.210;5.158;2022-12-07T01:17:41;101766.81;;;2.62;89.42
65329;BME280;51941;52.210;5.158;2022-12-07T01:20:09;101761.22;;;2.57;89.30
65329;BME280;51941;52.210;5.158;2022-12-07T01:22:36;101763.47;;;2.52;89.25
65329;BME280;51941;52.210;5.158;2022-12-07T01:25:04;101737.06;;;2.29;89.34
65329;BME280;51941;52.210;5.158;2022-12-07T01:27:33;101781.44;;;2.47;89.40
65329;BME280;51941;52.210;5.158;2022-12-07T01:30:00;101776.34;;;2.46;89.25
65329;BME280;51941;52.210;5.158;2022-12-07T01:32:29;101769.28;;;2.38;89.36
65329;BME280;51941;52.210;5.158;2022-12-07T01:34:55;101724.34;;;2.09;89.25
65329;BME280;51941;52.210;5.158;2022-12-07T01:37:22;101764.84;;;2.30;89.55
65329;BME280;51941;52.210;5.158;2022-12-07T01:39:50;101779.22;;;2.34;89.38
65329;BME280;51941;52.210;5.158;2022-12-07T01:42:17;101785.94;;;2.37;89.63
65329;BME280;51941;52.210;5.158;2022-12-07T01:47:53;101785.16;;;2.45;90.07
65329;BME280;51941;52.210;5.158;2022-12-07T01:50:24;101795.00;;;2.51;90.51
65329;BME280;51941;52.210;5.158;2022-12-07T01:52:53;101771.16;;;2.54;90.77
65329;BME280;51941;52.210;5.158;2022-12-07T01:55:22;101791.56;;;2.76;91.51
65329;BME280;51941;52.210;5.158;2022-12-07T01:57:52;101775.00;;;3.01;92.19
65329;BME280;51941;52.210;5.158;2022-12-07T02:00:20;101775.22;;;3.24;92.29
65329;BME280;51941;52.210;5.158;2022-12-07T02:02:49;101735.66;;;3.19;92.13
65329;BME280;51941;52.210;5.158;2022-12-07T02:05:18;101731.56;;;3.33;91.96
65329;BME280;51941;52.210;5.158;2022-12-07T02:07:46;101769.88;;;3.66;91.74
65329;BME280;51941;52.210;5.158;2022-12-07T02:10:15;101736.66;;;3.50;91.33
65329;BME280;51941;52.210;5.158;2022-12-07T02:12:43;101769.91;;;3.74;91.27
65329;BME280;51941;52.210;5.158;2022-12-07T02:15:11;101735.22;;;3.56;91.12
65329;BME280;51941;52.210;5.158;2022-12-07T02:17:51;101749.13;;;3.65;90.89
65329;BME280;51941;52.210;5.158;2022-12-07T02:20:28;101767.13;;;3.68;90.71
65329;BME280;51941;52.210;5.158;2022-12-07T02:29:19;101740.25;;;3.49;90.63
65329;BME280;51941;52.210;5.158;2022-12-07T02:31:54;101723.41;;;3.28;90.56
65329;BME280;51941;52.210;5.158;2022-12-07T02:34:30;101755.81;;;3.43;90.64
65329;BME280;51941;52.210;5.158;2022-12-07T02:37:03;101752.22;;;3.44;90.54
65329;BME280;51941;52.210;5.158;2022-12-07T02:39:41;101750.41;;;3.44;90.42
65329;BME280;51941;52.210;5.158;2022-12-07T02:42:13;101741.56;;;3.37;90.81
65329;BME280;51941;52.210;5.158;2022-12-07T02:44:43;101755.34;;;3.47;90.60
65329;BME280;51941;52.210;5.158;2022-12-07T02:47:14;101748.63;;;3.45;90.55
65329;BME280;51941;52.210;5.158;2022-12-07T02:49:42;101704.53;;;3.00;90.59
65329;BME280;51941;52.210;5.158;2022-12-07T02:52:09;101762.22;;;3.48;90.66
65329;BME280;51941;52.210;5.158;2022-12-07T02:54:36;101749.28;;;3.55;90.66
65329;BME280;51941;52.210;5.158;2022-12-07T02:57:11;101741.59;;;3.62;90.70
65329;BME280;51941;52.210;5.158;2022-12-07T02:59:55;101749.13;;;3.65;90.46
65329;BME280;51941;52.210;5.158;2022-12-07T03:02:34;101754.38;;;3.65;90.34
65329;BME280;51941;52.210;5.158;2022-12-07T03:07:55;101747.97;;;3.59;90.38
65329;BME280;51941;52.210;5.158;2022-12-07T03:10:31;101747.97;;;3.59;90.34
65329;BME280;51941;52.210;5.158;2022-12-07T03:13:04;101755.66;;;3.52;90.16
65329;BME280;51941;52.210;5.158;2022-12-07T03:15:39;101745.03;;;3.46;89.87
65329;BME280;51941;52.210;5.158;2022-12-07T03:18:09;101741.56;;;3.37;89.84
65329;BME280;51941;52.210;5.158;2022-12-07T03:20:38;101751.06;;;3.30;89.83
65329;BME280;51941;52.210;5.158;2022-12-07T03:23:08;101586.03;;;2.25;89.84
65329;BME280;51941;52.210;5.158;2022-12-07T03:25:39;101731.84;;;3.13;89.69
65329;BME280;51941;52.210;5.158;2022-12-07T03:28:09;101740.03;;;3.10;89.82
65329;BME280;51941;52.210;5.158;2022-12-07T03:30:42;101739.38;;;3.08;89.91
65329;BME280;51941;52.210;5.158;2022-12-07T03:33:13;101745.44;;;3.09;90.06
65329;BME280;51941;52.210;5.158;2022-12-07T03:35:43;101743.78;;;3.08;90.18
65329;BME280;51941;52.210;5.158;2022-12-07T03:38:16;101744.13;;;3.13;90.34
65329;BME280;51941;52.210;5.158;2022-12-07T03:40:47;101750.38;;;3.20;90.73
65329;BME280;51941;52.210;5.158;2022-12-07T03:43:17;101749.72;;;3.26;90.50
65329;BME280;51941;52.210;5.158;2022-12-07T03:45:55;101746.13;;;3.27;90.68
65329;BME280;51941;52.210;5.158;2022-12-07T03:48:25;101753.66;;;3.30;90.69
65329;BME280;51941;52.210;5.158;2022-12-07T03:50:56;101698.19;;;3.10;90.66
65329;BME280;51941;52.210;5.158;2022-12-07T03:53:33;101740.91;;;3.43;90.63
65329;BME280;51941;52.210;5.158;2022-12-07T03:56:02;101732.09;;;3.44;90.48
65329;BME280;51941;52.210;5.158;2022-12-07T03:58:29;101730.81;;;3.48;90.63
65329;BME280;51941;52.210;5.158;2022-12-07T04:00:58;101730.47;;;3.51;90.75
65329;BME280;51941;52.210;5.158;2022-12-07T04:03:25;101727.84;;;3.51;90.48
65329;BME280;51941;52.210;5.158;2022-12-07T04:05:51;101719.66;;;3.46;90.57
65329;BME280;51941;52.210;5.158;2022-12-07T04:08:18;101709.66;;;3.34;90.43
65329;BME280;51941;52.210;5.158;2022-12-07T04:10:45;101718.00;;;3.29;90.18
65329;BME280;51941;52.210;5.158;2022-12-07T04:13:12;101716.34;;;3.20;90.10
65329;BME280;51941;52.210;5.158;2022-12-07T04:15:40;101720.41;;;3.14;89.86
65329;BME280;51941;52.210;5.158;2022-12-07T04:18:08;101705.19;;;3.02;90.19
65329;BME280;51941;52.210;5.158;2022-12-07T04:20:34;101726.16;;;3.18;90.29
65329;BME280;51941;52.210;5.158;2022-12-07T04:23:01;101749.53;;;3.20;90.41
65329;BME280;51941;52.210;5.158;2022-12-07T04:25:28;101705.78;;;2.88;90.71
65329;BME280;51941;52.210;5.158;2022-12-07T04:27:55;101755.59;;;3.12;91.57
65329;BME280;51941;52.210;5.158;2022-12-07T04:30:21;101756.91;;;3.32;92.34
65329;BME280;51941;52.210;5.158;2022-12-07T04:32:48;101713.47;;;3.56;92.75
65329;BME280;51941;52.210;5.158;2022-12-07T04:35:16;101708.38;;;3.62;92.73
65329;BME280;51941;52.210;5.158;2022-12-07T04:37:43;101721.63;;;3.77;92.74
65329;BME280;51941;52.210;5.158;2022-12-07T04:40:10;101719.00;;;3.85;92.38
65329;BME280;51941;52.210;5.158;2022-12-07T04:42:39;101714.94;;;3.82;91.91
65329;BME280;51941;52.210;5.158;2022-12-07T04:45:07;101723.09;;;3.79;91.33
65329;BME280;51941;52.210;5.158;2022-12-07T04:47:34;101715.09;;;3.73;90.84
65329;BME280;51941;52.210;5.158;2022-12-07T04:50:01;101715.09;;;3.65;90.51
65329;BME280;51941;52.210;5.158;2022-12-07T04:52:29;101716.72;;;3.58;90.09
65329;BME280;51941;52.210;5.158;2022-12-07T04:54:55;101708.38;;;3.46;90.09
65329;BME280;51941;52.210;5.158;2022-12-07T04:57:22;101687.44;;;3.30;89.80
65329;BME280;51941;52.210;5.158;2022-12-07T04:59:49;101710.50;;;3.42;89.79
65329;BME280;51941;52.210;5.158;2022-12-07T05:02:15;101702.63;;;3.34;89.80
65329;BME280;51941;52.210;5.158;2022-12-07T05:04:42;101701.34;;;3.30;89.71
65329;BME280;51941;52.210;5.158;2022-12-07T05:07:09;101706.38;;;3.24;89.78
65329;BME280;51941;52.210;5.158;2022-12-07T05:09:37;101699.34;;;3.16;89.59
65329;BME280;51941;52.210;5.158;2022-12-07T05:12:04;101706.84;;;3.11;89.53
65329;BME280;51941;52.210;5.158;2022-12-07T05:14:30;101704.06;;;3.04;89.73
65329;BME280;51941;52.210;5.158;2022-12-07T05:16:57;101702.56;;;2.94;89.55
65329;BME280;51941;52.210;5.158;2022-12-07T05:19:24;101708.91;;;2.91;89.51
65329;BME280;51941;52.210;5.158;2022-12-07T05:21:51;101704.19;;;2.87;89.63
65329;BME280;51941;52.210;5.158;2022-12-07T05:24:18;101703.81;;;2.82;89.66
65329;BME280;51941;52.210;5.158;2022-12-07T05:26:46;101704.47;;;2.75;89.70
65329;BME280;51941;52.210;5.158;2022-12-07T05:29:14;101692.78;;;2.62;89.95
65329;BME280;51941;52.210;5.158;2022-12-07T05:31:42;101708.84;;;2.67;89.80
65329;BME280;51941;52.210;5.158;2022-12-07T05:34:09;101705.06;;;2.69;90.13
65329;BME280;51941;52.210;5.158;2022-12-07T05:36:36;101711.13;;;2.70;90.43
65329;BME280;51941;52.210;5.158;2022-12-07T05:39:03;101711.78;;;2.72;90.48
65329;BME280;51941;52.210;5.158;2022-12-07T05:41:29;101704.78;;;2.72;90.43
65329;BME280;51941;52.210;5.158;2022-12-07T05:44:15;101702.00;;;2.74;90.47
65329;BME280;51941;52.210;5.158;2022-12-07T05:46:42;101703.13;;;2.71;90.54
65329;BME280;51941;52.210;5.158;2022-12-07T05:49:08;101620.84;;;2.33;90.73
65329;BME280;51941;52.210;5.158;2022-12-07T05:51:35;101691.91;;;2.87;91.19
65329;BME280;51941;52.210;5.158;2022-12-07T05:54:02;101703.88;;;2.98;90.92
65329;BME280;51941;52.210;5.158;2022-12-07T05:56:29;101700.13;;;3.00;90.91
65329;BME280;51941;52.210;5.158;2022-12-07T05:58:55;101679.84;;;2.86;90.76
65329;BME280;51941;52.210;5.158;2022-12-07T06:01:41;101703.41;;;3.02;91.09
65329;BME280;51941;52.210;5.158;2022-12-07T06:04:08;101700.63;;;3.04;90.90
65329;BME280;51941;52.210;5.158;2022-12-07T06:06:35;101691.97;;;3.03;90.88
65329;BME280;51941;52.210;5.158;2022-12-07T06:09:02;101678.69;;;2.97;91.04
65329;BME280;51941;52.210;5.158;2022-12-07T06:11:29;101705.06;;;3.11;90.99
65329;BME280;51941;52.210;5.158;2022-12-07T06:14:13;101701.94;;;3.08;91.07
65329;BME280;51941;52.210;5.158;2022-12-07T06:16:41;101707.66;;;3.03;90.90
65329;BME280;51941;52.210;5.158;2022-12-07T06:19:08;101688.16;;;2.90;90.83
65329;BME280;51941;52.210;5.158;2022-12-07T06:21:35;101712.53;;;2.98;90.84
65329;BME280;51941;52.210;5.158;2022-12-07T06:24:02;101684.84;;;2.79;90.72
65329;BME280;51941;52.210;5.158;2022-12-07T06:26:29;101707.78;;;2.94;90.63
65329;BME280;51941;52.210;5.158;2022-12-07T06:28:56;101708.28;;;2.97;90.80
65329;BME280;51941;52.210;5.158;2022-12-07T06:31:22;101700.28;;;2.99;91.10
65329;BME280;51941;52.210;5.158;2022-12-07T06:33:50;101699.00;;;3.03;91.12
65329;BME280;51941;52.210;5.158;2022-12-07T06:36:17;101706.69;;;3.04;90.92
65329;BME280;51941;52.210;5.158;2022-12-07T06:38:44;101708.47;;;3.04;90.90
65329;BME280;51941;52.210;5.158;2022-12-07T06:41:10;101706.84;;;3.03;90.70
65329;BME280;51941;52.210;5.158;2022-12-07T06:43:37;101704.22;;;3.03;90.86
65329;BME280;51941;52.210;5.158;2022-12-07T06:46:05;101712.06;;;3.03;90.70
65329;BME280;51941;52.210;5.158;2022-12-07T06:48:31;101719.75;;;3.04;90.81
65329;BME280;51941;52.210;5.158;2022-12-07T06:51:00;101715.31;;;3.05;90.69
65329;BME280;51941;52.210;5.158;2022-12-07T06:53:26;101705.88;;;3.12;90.78
65329;BME280;51941;52.210;5.158;2022-12-07T06:55:53;101711.94;;;3.12;90.78
65329;BME280;51941;52.210;5.158;2022-12-07T06:58:20;101706.50;;;3.14;90.76
65329;BME280;51941;52.210;5.158;2022-12-07T07:00:47;101701.28;;;3.14;90.82
65329;BME280;51941;52.210;5.158;2022-12-07T07:03:14;101699.69;;;3.13;90.65
65329;BME280;51941;52.210;5.158;2022-12-07T07:05:41;101701.13;;;3.07;90.65
65329;BME280;51941;52.210;5.158;2022-12-07T07:08:09;101704.22;;;3.03;90.48
65329;BME280;51941;52.210;5.158;2022-12-07T07:10:36;101698.78;;;2.96;90.48
65329;BME280;51941;52.210;5.158;2022-12-07T07:13:03;101704.00;;;2.88;90.38
65329;BME280;51941;52.210;5.158;2022-12-07T07:15:31;101669.47;;;2.60;90.31
65329;BME280;51941;52.210;5.158;2022-12-07T07:17:59;101679.91;;;2.60;89.99
65329;BME280;51941;52.210;5.158;2022-12-07T07:20:26;101699.06;;;2.69;89.88
65329;BME280;51941;52.210;5.158;2022-12-07T07:22:54;101677.56;;;2.49;90.19
65329;BME280;51941;52.210;5.158;2022-12-07T07:25:22;101696.19;;;2.54;90.18
65329;BME280;51941;52.210;5.158;2022-12-07T07:27:49;101713.38;;;2.57;90.19
65329;BME280;51941;52.210;5.158;2022-12-07T07:30:16;101707.81;;;2.52;90.25
65329;BME280;51941;52.210;5.158;2022-12-07T07:32:43;101708.78;;;2.51;90.29
65329;BME280;51941;52.210;5.158;2022-12-07T07:35:09;101712.81;;;2.45;90.16
65329;BME280;51941;52.210;5.158;2022-12-07T07:37:36;101714.28;;;2.39;90.16
65329;BME280;51941;52.210;5.158;2022-12-07T07:40:04;101713.59;;;2.37;90.14
65329;BME280;51941;52.210;5.158;2022-12-07T07:42:33;101713.09;;;2.34;90.25
65329;BME280;51941;52.210;5.158;2022-12-07T07:44:59;101720.94;;;2.34;90.17
65329;BME280;51941;52.210;5.158;2022-12-07T07:47:26;101711.28;;;2.34;90.57
65329;BME280;51941;52.210;5.158;2022-12-07T07:49:54;101711.94;;;2.36;90.62
65329;BME280;51941;52.210;5.158;2022-12-07T07:52:21;101713.16;;;2.42;90.66
65329;BME280;51941;52.210;5.158;2022-12-07T07:54:47;101713.34;;;2.49;90.66
65329;BME280;51941;52.210;5.158;2022-12-07T07:57:16;101675.38;;;2.36;90.93
65329;BME280;51941;52.210;5.158;2022-12-07T07:59:44;101717.34;;;2.69;90.93
65329;BME280;51941;52.210;5.158;2022-12-07T08:02:14;101718.84;;;2.79;91.08
65329;BME280;51941;52.210;5.158;2022-12-07T08:04:41;101722.97;;;2.90;91.48
65329;BME280;51941;52.210;5.158;2022-12-07T08:07:08;101729.72;;;3.01;92.29
65329;BME280;51941;52.210;5.158;2022-12-07T08:09:34;101737.47;;;3.27;92.74
65329;BME280;51941;52.210;5.158;2022-12-07T08:12:01;101750.88;;;3.40;93.21
65329;BME280;51941;52.210;5.158;2022-12-07T08:14:28;101734.22;;;3.49;93.37
65329;BME280;51941;52.210;5.158;2022-12-07T08:16:56;101735.53;;;3.61;93.09
65329;BME280;51941;52.210;5.158;2022-12-07T08:19:23;101728.34;;;3.63;92.51
65329;BME280;51941;52.210;5.158;2022-12-07T08:21:50;101740.47;;;3.72;92.21
65329;BME280;51941;52.210;5.158;2022-12-07T08:24:17;101726.88;;;3.69;92.25
65329;BME280;51941;52.210;5.158;2022-12-07T08:26:44;101743.06;;;3.80;92.04
65329;BME280;51941;52.210;5.158;2022-12-07T08:29:11;101733.41;;;3.89;91.84
65329;BME280;51941;52.210;5.158;2022-12-07T08:31:38;101737.66;;;3.98;91.80
65329;BME280;51941;52.210;5.158;2022-12-07T08:34:06;101729.97;;;4.05;91.81
65329;BME280;51941;52.210;5.158;2022-12-07T08:36:33;101733.72;;;4.18;91.64
65329;BME280;51941;52.210;5.158;2022-12-07T08:38:59;101738.94;;;4.26;91.94
65329;BME280;51941;52.210;5.158;2022-12-07T08:41:26;101736.47;;;4.33;91.56
65329;BME280;51941;52.210;5.158;2022-12-07T08:43:53;101737.59;;;4.39;91.52
65329;BME280;51941;52.210;5.158;2022-12-07T08:46:23;101744.81;;;4.45;91.63
65329;BME280;51941;52.210;5.158;2022-12-07T08:48:55;101733.78;;;4.49;91.51
65329;BME280;51941;52.210;5.158;2022-12-07T08:51:24;101727.25;;;4.53;91.31
65329;BME280;51941;52.210;5.158;2022-12-07T08:53:52;101719.16;;;4.63;91.22
65329;BME280;51941;52.210;5.158;2022-12-07T08:56:20;101719.78;;;4.73;91.26
65329;BME280;51941;52.210;5.158;2022-12-07T08:58:47;101713.88;;;4.79;91.18
65329;BME280;51941;52.210;5.158;2022-12-07T09:01:14;101724.66;;;4.84;91.19
65329;BME280;51941;52.210;5.158;2022-12-07T09:03:41;101717.28;;;4.88;90.92
65329;BME280;51941;52.210;5.158;2022-12-07T09:06:08;101651.69;;;4.49;90.92
65329;BME280;51941;52.210;5.158;2022-12-07T09:08:40;101682.75;;;4.68;90.64
65329;BME280;51941;52.210;5.158;2022-12-07T09:11:08;101706.28;;;4.84;90.54
65329;BME280;51941;52.210;5.158;2022-12-07T09:13:35;101723.31;;;4.96;90.48
65329;BME280;51941;52.210;5.158;2022-12-07T09:16:02;101721.34;;;4.90;90.35
65329;BME280;51941;52.210;5.158;2022-12-07T09:18:29;101724.63;;;4.92;90.16
65329;BME280;51941;52.210;5.158;2022-12-07T09:20:56;101725.44;;;4.93;90.19
65329;BME280;51941;52.210;5.158;2022-12-07T09:23:22;101728.19;;;4.99;90.08
65329;BME280;51941;52.210;5.158;2022-12-07T09:25:51;101730.44;;;5.11;90.20
65329;BME280;51941;52.210;5.158;2022-12-07T09:28:17;101736.63;;;5.18;90.03
65329;BME280;51941;52.210;5.158;2022-12-07T09:30:46;101733.94;;;5.26;90.13
65329;BME280;51941;52.210;5.158;2022-12-07T09:33:13;101704.38;;;5.09;89.89
65329;BME280;51941;52.210;5.158;2022-12-07T09:35:44;101742.53;;;5.42;89.83
65329;BME280;51941;52.210;5.158;2022-12-07T09:38:11;101741.50;;;5.52;89.83
65329;BME280;51941;52.210;5.158;2022-12-07T09:40:39;101728.28;;;5.60;89.66
65329;BME280;51941;52.210;5.158;2022-12-07T09:43:12;101727.78;;;5.64;89.42
65329;BME280;51941;52.210;5.158;2022-12-07T09:45:40;101725.81;;;5.66;89.47
65329;BME280;51941;52.210;5.158;2022-12-07T09:48:16;101703.41;;;5.56;89.26
65329;BME280;51941;52.210;5.158;2022-12-07T09:50:44;101724.38;;;5.78;89.32
65329;BME280;51941;52.210;5.158;2022-12-07T09:53:15;101724.31;;;5.87;89.27
65329;BME280;51941;52.210;5.158;2022-12-07T09:55:46;101717.97;;;5.96;89.30
65329;BME280;51941;52.210;5.158;2022-12-07T09:58:20;101696.03;;;5.89;89.01
65329;BME280;51941;52.210;5.158;2022-12-07T10:00:49;101674.75;;;5.84;88.86
65329;BME280;51941;52.210;5.158;2022-12-07T10:03:16;101672.94;;;5.84;88.24
65329;BME280;51941;52.210;5.158;2022-12-07T10:05:46;101718.09;;;6.02;88.11
65329;BME280;51941;52.210;5.158;2022-12-07T10:08:14;101708.50;;;5.95;88.08
65329;BME280;51941;52.210;5.158;2022-12-07T10:10:44;101709.34;;;5.87;87.83
65329;BME280;51941;52.210;5.158;2022-12-07T10:13:12;101698.94;;;5.79;87.64
65329;BME280;51941;52.210;5.158;2022-12-07T10:15:59;101703.56;;;5.77;87.49
65329;BME280;51941;52.210;5.158;2022-12-07T10:18:29;101699.00;;;5.71;87.43
65329;BME280;51941;52.210;5.158;2022-12-07T10:21:01;101696.66;;;5.76;87.51
65329;BME280;51941;52.210;5.158;2022-12-07T10:23:29;101699.75;;;5.79;87.36
65329;BME280;51941;52.210;5.158;2022-12-07T10:25:56;101699.84;;;5.86;87.45
65329;BME280;51941;52.210;5.158;2022-12-07T10:28:23;101696.69;;;6.05;87.68
65329;BME280;51941;52.210;5.158;2022-12-07T10:30:52;101690.50;;;6.21;87.54
65329;BME280;51941;52.210;5.158;2022-12-07T10:33:32;101689.75;;;6.27;87.53
65329;BME280;51941;52.210;5.158;2022-12-07T10:36:01;101687.56;;;6.31;87.09
65329;BME280;51941;52.210;5.158;2022-12-07T10:38:46;101680.38;;;6.39;86.84
65329;BME280;51941;52.210;5.158;2022-12-07T10:41:13;101684.38;;;6.50;86.87
65329;BME280;51941;52.210;5.158;2022-12-07T10:43:47;101685.66;;;6.54;86.56
65329;BME280;51941;52.210;5.158;2022-12-07T10:46:45;101677.38;;;6.57;85.93
65329;BME280;51941;52.210;5.158;2022-12-07T10:49:41;101683.75;;;6.63;86.16
65329;BME280;51941;52.210;5.158;2022-12-07T10:52:20;101667.50;;;6.59;85.58
65329;BME280;51941;52.210;5.158;2022-12-07T10:54:56;101665.03;;;6.57;85.21
65329;BME280;51941;52.210;5.158;2022-12-07T10:57:37;101665.50;;;6.61;85.00
65329;BME280;51941;52.210;5.158;2022-12-07T11:00:15;101633.97;;;6.46;84.76
65329;BME280;51941;52.210;5.158;2022-12-07T11:02:59;101656.44;;;6.64;84.69
65329;BME280;51941;52.210;5.158;2022-12-07T11:05:38;101649.66;;;6.54;84.22
65329;BME280;51941;52.210;5.158;2022-12-07T11:08:13;101658.16;;;6.56;84.02
65329;BME280;51941;52.210;5.158;2022-12-07T11:10:49;101644.56;;;6.53;84.23
65329;BME280;51941;52.210;5.158;2022-12-07T11:13:26;101647.56;;;6.50;84.36
65329;BME280;51941;52.210;5.158;2022-12-07T11:16:06;101645.22;;;6.40;84.22
65329;BME280;51941;52.210;5.158;2022-12-07T11:18:43;101644.31;;;6.33;84.21
65329;BME280;51941;52.210;5.158;2022-12-07T11:21:20;101651.31;;;6.26;84.14
65329;BME280;51941;52.210;5.158;2022-12-07T11:23:58;101650.94;;;6.14;84.33
65329;BME280;51941;52.210;5.158;2022-12-07T11:26:39;101642.31;;;6.06;84.42
65329;BME280;51941;52.210;5.158;2022-12-07T11:29:24;101637.88;;;6.06;84.15
65329;BME280;51941;52.210;5.158;2022-12-07T11:32:04;101634.91;;;5.95;84.23
65329;BME280;51941;52.210;5.158;2022-12-07T11:34:39;101634.63;;;5.90;84.42
65329;BME280;51941;52.210;5.158;2022-12-07T11:37:13;101631.91;;;5.98;84.46
65329;BME280;51941;52.210;5.158;2022-12-07T11:39:48;101620.06;;;6.02;84.51
65329;BME280;51941;52.210;5.158;2022-12-07T11:42:22;101626.22;;;6.09;84.53
65329;BME280;51941;52.210;5.158;2022-12-07T11:44:52;101612.06;;;6.10;84.60
65329;BME280;51941;52.210;5.158;2022-12-07T11:47:25;101616.13;;;6.12;84.45
65329;BME280;51941;52.210;5.158;2022-12-07T11:49:58;101532.88;;;5.54;83.90
65329;BME280;51941;52.210;5.158;2022-12-07T11:52:39;101615.34;;;6.12;83.69
65329;BME280;51941;52.210;5.158;2022-12-07T11:55:19;101615.41;;;6.18;83.50
65329;BME280;51941;52.210;5.158;2022-12-07T11:57:51;101603.06;;;6.34;83.90
65329;BME280;51941;52.210;5.158;2022-12-07T12:00:20;101518.75;;;5.85;83.45
65329;BME280;51941;52.210;5.158;2022-12-07T12:02:52;101595.13;;;6.48;83.23
65329;BME280;51941;52.210;5.158;2022-12-07T12:05:22;101587.53;;;6.53;83.06
65329;BME280;51941;52.210;5.158;2022-12-07T12:08:00;101594.94;;;6.65;82.99
65329;BME280;51941;52.210;5.158;2022-12-07T12:10:37;101592.66;;;6.62;82.01
65329;BME280;51941;52.210;5.158;2022-12-07T12:13:20;101587.34;;;6.76;81.43
65329;BME280;51941;52.210;5.158;2022-12-07T12:16:07;101584.75;;;6.98;81.37
65329;BME280;51941;52.210;5.158;2022-12-07T12:18:48;101584.16;;;7.23;81.24
65329;BME280;51941;52.210;5.158;2022-12-07T12:21:22;101588.03;;;7.49;80.26
65329;BME280;51941;52.210;5.158;2022-12-07T12:23:58;101588.16;;;7.68;79.51
65329;BME280;51941;52.210;5.158;2022-12-07T12:26:28;101587.66;;;7.86;79.03
65329;BME280;51941;52.210;5.158;2022-12-07T12:28:58;101584.94;;;8.07;79.52
65329;BME280;51941;52.210;5.158;2022-12-07T12:31:37;101596.09;;;8.10;79.41
65329;BME280;51941;52.210;5.158;2022-12-07T12:34:32;101588.09;;;7.62;78.16
65329;BME280;51941;52.210;5.158;2022-12-07T12:36:59;101587.19;;;7.27;77.81
65329;BME280;51941;52.210;5.158;2022-12-07T12:39:28;101578.06;;;7.02;77.85
65329;BME280;51941;52.210;5.158;2022-12-07T12:41:57;101580.22;;;6.70;78.04
65329;BME280;51941;52.210;5.158;2022-12-07T12:47:56;101544.25;;;6.20;79.37
65329;BME280;51941;52.210;5.158;2022-12-07T12:50:26;101562.47;;;6.22;79.39
65329;BME280;51941;52.210;5.158;2022-12-07T12:53:12;101558.84;;;6.23;79.83
65329;BME280;51941;52.210;5.158;2022-12-07T12:58:44;101554.09;;;6.33;80.53
65329;BME280;51941;52.210;5.158;2022-12-07T13:01:44;101549.66;;;6.33;81.14
65329;BME280;51941;52.210;5.158;2022-12-07T13:07:55;101552.75;;;6.37;81.27
65329;BME280;51941;52.210;5.158;2022-12-07T13:10:29;101544.75;;;6.45;81.29
65329;BME280;51941;52.210;5.158;2022-12-07T13:13:03;101544.75;;;6.45;81.38
65329;BME280;51941;52.210;5.158;2022-12-07T13:15:33;101527.97;;;6.46;81.21
65329;BME280;51941;52.210;5.158;2022-12-07T13:18:03;101531.47;;;6.53;81.13
65329;BME280;51941;52.210;5.158;2022-12-07T13:20:46;101529.47;;;6.55;81.04
65329;BME280;51941;52.210;5.158;2022-12-07T13:23:18;101507.84;;;6.60;80.97
65329;BME280;51941;52.210;5.158;2022-12-07T13:25:50;101520.56;;;6.77;81.00
65329;BME280;51941;52.210;5.158;2022-12-07T13:28:20;101513.94;;;6.81;80.90
65329;BME280;51941;52.210;5.158;2022-12-07T13:31:02;101473.63;;;6.53;80.85
65329;BME280;51941;52.210;5.158;2022-12-07T13:33:30;101504.28;;;6.88;80.31
65329;BME280;51941;52.210;5.158;2022-12-07T13:35:57;101496.94;;;6.84;80.14
65329;BME280;51941;52.210;5.158;2022-12-07T13:38:28;101509.09;;;6.85;79.41